EDDF/FRA METAR and TAF weather

Enter ICAO airport designator
Station Type Date Time Source
EDDF METAR 2019/06/26 21:50 UTC NOAA

EDDF 262150Z 03010KT CAVOK 29/18 Q1022 NOSIG


Station Type Date Time Source
EDDF Decoded METAR 2019/06/26 21:50 UTC NOAA

Frankfurt / M-Flughafen, Germany (EDDF) 50-03N 008-36E 113M
Jun 26, 2019 - 05:50 PM EDT / 2019.06.26 2150 UTC
Wind: from the NNE (030 degrees) at 12 MPH (10 KT):0
Visibility: greater than 7 mile(s):0
Temperature: 84 F (29 C)
Dew Point: 64 F (18 C)
Relative Humidity: 51%
Pressure (altimeter): 30.18 in. Hg (1022 hPa)
ob: EDDF 262150Z 03010KT CAVOK 29/18 Q1022 NOSIG
cycle: 22

Station Type Date Time Source
EDDF TAF 2019/06/26 18:28 UTC NOAA

TAF EDDF 261700Z 2618/2724 01009KT CAVOK

Example: see airport list